sensor_id;sensor_type;location;lat;lon;timestamp;temperature;humidity
17399;DHT22;8817;48.170;8.592;2023-04-15T00:01:42;11.60;41.00
17399;DHT22;8817;48.170;8.592;2023-04-15T00:04:09;11.60;41.10
17399;DHT22;8817;48.170;8.592;2023-04-15T00:06:36;11.50;41.00
17399;DHT22;8817;48.170;8.592;2023-04-15T00:09:05;11.60;41.10
17399;DHT22;8817;48.170;8.592;2023-04-15T00:11:32;11.50;41.00
17399;DHT22;8817;48.170;8.592;2023-04-15T00:13:59;11.50;41.00
17399;DHT22;8817;48.170;8.592;2023-04-15T00:16:26;11.50;41.00
17399;DHT22;8817;48.170;8.592;2023-04-15T00:18:53;11.50;41.00
17399;DHT22;8817;48.170;8.592;2023-04-15T00:21:20;11.40;41.00
17399;DHT22;8817;48.170;8.592;2023-04-15T00:23:46;11.40;40.90
17399;DHT22;8817;48.170;8.592;2023-04-15T00:26:18;11.40;41.00
17399;DHT22;8817;48.170;8.592;2023-04-15T00:28:45;11.40;41.00
17399;DHT22;8817;48.170;8.592;2023-04-15T00:31:12;11.30;40.90
17399;DHT22;8817;48.170;8.592;2023-04-15T00:33:39;11.30;40.90
17399;DHT22;8817;48.170;8.592;2023-04-15T00:36:06;11.20;40.80
17399;DHT22;8817;48.170;8.592;2023-04-15T00:38:35;11.20;40.80
17399;DHT22;8817;48.170;8.592;2023-04-15T00:41:02;11.10;40.80
17399;DHT22;8817;48.170;8.592;2023-04-15T00:43:31;11.00;40.80
17399;DHT22;8817;48.170;8.592;2023-04-15T00:45:58;11.00;40.80
17399;DHT22;8817;48.170;8.592;2023-04-15T00:48:27;10.90;40.80
17399;DHT22;8817;48.170;8.592;2023-04-15T00:50:54;10.90;40.80
17399;DHT22;8817;48.170;8.592;2023-04-15T00:53:21;10.80;40.80
17399;DHT22;8817;48.170;8.592;2023-04-15T00:55:48;10.80;40.90
17399;DHT22;8817;48.170;8.592;2023-04-15T00:58:15;10.80;41.00
17399;DHT22;8817;48.170;8.592;2023-04-15T01:00:44;10.70;40.90
17399;DHT22;8817;48.170;8.592;2023-04-15T01:03:11;10.80;41.10
17399;DHT22;8817;48.170;8.592;2023-04-15T01:05:38;10.70;41.00
17399;DHT22;8817;48.170;8.592;2023-04-15T01:08:05;10.70;41.10
17399;DHT22;8817;48.170;8.592;2023-04-15T01:10:32;10.70;41.10
17399;DHT22;8817;48.170;8.592;2023-04-15T01:12:59;10.70;41.10
17399;DHT22;8817;48.170;8.592;2023-04-15T01:15:26;10.70;41.10
17399;DHT22;8817;48.170;8.592;2023-04-15T01:17:56;10.60;41.10
17399;DHT22;8817;48.170;8.592;2023-04-15T01:20:24;10.60;41.10
17399;DHT22;8817;48.170;8.592;2023-04-15T01:22:53;10.60;41.10
17399;DHT22;8817;48.170;8.592;2023-04-15T01:25:29;10.60;41.10
17399;DHT22;8817;48.170;8.592;2023-04-15T01:27:57;10.60;41.10
17399;DHT22;8817;48.170;8.592;2023-04-15T01:30:25;10.60;41.10
17399;DHT22;8817;48.170;8.592;2023-04-15T01:32:52;10.50;41.50
17399;DHT22;8817;48.170;8.592;2023-04-15T01:35:19;10.50;40.90
17399;DHT22;8817;48.170;8.592;2023-04-15T01:37:47;10.40;40.80
17399;DHT22;8817;48.170;8.592;2023-04-15T01:40:14;10.40;40.80
17399;DHT22;8817;48.170;8.592;2023-04-15T01:42:43;10.30;40.80
17399;DHT22;8817;48.170;8.592;2023-04-15T01:45:10;10.20;40.70
17399;DHT22;8817;48.170;8.592;2023-04-15T01:47:38;10.20;40.80
17399;DHT22;8817;48.170;8.592;2023-04-15T01:50:05;10.10;40.80
17399;DHT22;8817;48.170;8.592;2023-04-15T01:52:33;10.00;40.70
17399;DHT22;8817;48.170;8.592;2023-04-15T01:54:59;10.00;40.80
17399;DHT22;8817;48.170;8.592;2023-04-15T01:57:28;9.90;40.80
17399;DHT22;8817;48.170;8.592;2023-04-15T01:59:56;9.80;40.80
17399;DHT22;8817;48.170;8.592;2023-04-15T02:02:23;9.70;40.80
17399;DHT22;8817;48.170;8.592;2023-04-15T02:04:50;9.70;40.90
17399;DHT22;8817;48.170;8.592;2023-04-15T02:07:17;9.70;41.00
17399;DHT22;8817;48.170;8.592;2023-04-15T02:09:44;9.60;41.00
17399;DHT22;8817;48.170;8.592;2023-04-15T02:12:11;9.60;41.00
17399;DHT22;8817;48.170;8.592;2023-04-15T02:14:38;9.50;41.10
17399;DHT22;8817;48.170;8.592;2023-04-15T02:17:06;9.50;41.10
17399;DHT22;8817;48.170;8.592;2023-04-15T02:19:33;9.50;41.20
17399;DHT22;8817;48.170;8.592;2023-04-15T02:22:00;9.50;41.80
17399;DHT22;8817;48.170;8.592;2023-04-15T02:24:28;9.50;41.30
17399;DHT22;8817;48.170;8.592;2023-04-15T02:26:55;9.40;41.40
17399;DHT22;8817;48.170;8.592;2023-04-15T02:29:22;9.50;41.40
17399;DHT22;8817;48.170;8.592;2023-04-15T02:31:49;9.50;41.40
17399;DHT22;8817;48.170;8.592;2023-04-15T02:34:17;9.60;42.00
17399;DHT22;8817;48.170;8.592;2023-04-15T02:36:44;9.60;41.50
17399;DHT22;8817;48.170;8.592;2023-04-15T02:39:12;9.60;41.50
17399;DHT22;8817;48.170;8.592;2023-04-15T02:41:41;9.70;41.50
17399;DHT22;8817;48.170;8.592;2023-04-15T02:44:08;9.70;41.50
17399;DHT22;8817;48.170;8.592;2023-04-15T02:46:37;9.60;41.40
17399;DHT22;8817;48.170;8.592;2023-04-15T02:49:05;9.70;41.40
17399;DHT22;8817;48.170;8.592;2023-04-15T02:51:34;9.70;41.40
17399;DHT22;8817;48.170;8.592;2023-04-15T02:54:01;9.80;41.40
17399;DHT22;8817;48.170;8.592;2023-04-15T02:56:28;9.70;41.30
17399;DHT22;8817;48.170;8.592;2023-04-15T02:58:56;9.70;41.30
17399;DHT22;8817;48.170;8.592;2023-04-15T03:01:23;9.70;41.30
17399;DHT22;8817;48.170;8.592;2023-04-15T03:03:50;9.70;41.30
17399;DHT22;8817;48.170;8.592;2023-04-15T03:06:17;9.70;41.30
17399;DHT22;8817;48.170;8.592;2023-04-15T03:08:45;9.60;41.20
17399;DHT22;8817;48.170;8.592;2023-04-15T03:11:13;9.60;41.10
17399;DHT22;8817;48.170;8.592;2023-04-15T03:13:40;9.60;41.10
17399;DHT22;8817;48.170;8.592;2023-04-15T03:16:08;9.50;41.00
17399;DHT22;8817;48.170;8.592;2023-04-15T03:18:35;9.50;41.10
17399;DHT22;8817;48.170;8.592;2023-04-15T03:21:02;9.40;41.00
17399;DHT22;8817;48.170;8.592;2023-04-15T03:23:30;9.40;41.00
17399;DHT22;8817;48.170;8.592;2023-04-15T03:26:00;9.30;41.10
17399;DHT22;8817;48.170;8.592;2023-04-15T03:28:28;9.20;41.00
17399;DHT22;8817;48.170;8.592;2023-04-15T03:30:54;9.10;41.00
17399;DHT22;8817;48.170;8.592;2023-04-15T03:33:21;9.00;41.00
17399;DHT22;8817;48.170;8.592;2023-04-15T03:35:49;9.00;41.10
17399;DHT22;8817;48.170;8.592;2023-04-15T03:38:16;9.00;41.30
17399;DHT22;8817;48.170;8.592;2023-04-15T03:40:44;9.00;41.40
17399;DHT22;8817;48.170;8.592;2023-04-15T03:43:12;9.00;41.50
17399;DHT22;8817;48.170;8.592;2023-04-15T03:45:39;9.00;41.50
17399;DHT22;8817;48.170;8.592;2023-04-15T03:48:06;9.00;41.50
17399;DHT22;8817;48.170;8.592;2023-04-15T03:50:33;9.00;42.10
17399;DHT22;8817;48.170;8.592;2023-04-15T03:53:00;9.00;41.50
17399;DHT22;8817;48.170;8.592;2023-04-15T03:55:27;9.00;41.50
17399;DHT22;8817;48.170;8.592;2023-04-15T03:57:53;9.10;41.60
17399;DHT22;8817;48.170;8.592;2023-04-15T04:00:22;9.10;41.60
17399;DHT22;8817;48.170;8.592;2023-04-15T04:02:49;9.10;41.60
17399;DHT22;8817;48.170;8.592;2023-04-15T04:05:16;9.10;41.60
17399;DHT22;8817;48.170;8.592;2023-04-15T04:07:42;9.20;41.60
17399;DHT22;8817;48.170;8.592;2023-04-15T04:10:10;9.20;41.50
17399;DHT22;8817;48.170;8.592;2023-04-15T04:12:37;9.20;41.50
17399;DHT22;8817;48.170;8.592;2023-04-15T04:15:04;9.20;41.50
17399;DHT22;8817;48.170;8.592;2023-04-15T04:17:34;9.20;41.50
17399;DHT22;8817;48.170;8.592;2023-04-15T04:20:01;9.20;41.50
17399;DHT22;8817;48.170;8.592;2023-04-15T04:22:28;9.20;41.50
17399;DHT22;8817;48.170;8.592;2023-04-15T04:24:55;9.20;41.60
17399;DHT22;8817;48.170;8.592;2023-04-15T04:27:24;9.20;41.50
17399;DHT22;8817;48.170;8.592;2023-04-15T04:29:51;9.20;41.50
17399;DHT22;8817;48.170;8.592;2023-04-15T04:32:17;9.20;41.50
17399;DHT22;8817;48.170;8.592;2023-04-15T04:34:46;9.20;41.50
17399;DHT22;8817;48.170;8.592;2023-04-15T04:37:13;9.20;41.50
17399;DHT22;8817;48.170;8.592;2023-04-15T04:39:40;9.10;41.50
17399;DHT22;8817;48.170;8.592;2023-04-15T04:42:07;9.10;41.50
17399;DHT22;8817;48.170;8.592;2023-04-15T04:44:33;9.10;41.50
17399;DHT22;8817;48.170;8.592;2023-04-15T04:47:00;9.10;41.50
17399;DHT22;8817;48.170;8.592;2023-04-15T04:49:27;9.10;41.50
17399;DHT22;8817;48.170;8.592;2023-04-15T04:51:56;9.10;41.50
17399;DHT22;8817;48.170;8.592;2023-04-15T04:54:23;9.10;41.60
17399;DHT22;8817;48.170;8.592;2023-04-15T04:56:50;9.10;41.70
17399;DHT22;8817;48.170;8.592;2023-04-15T04:59:17;9.10;41.70
17399;DHT22;8817;48.170;8.592;2023-04-15T05:01:44;9.10;41.80
17399;DHT22;8817;48.170;8.592;2023-04-15T05:04:11;9.20;41.90
17399;DHT22;8817;48.170;8.592;2023-04-15T05:06:38;9.20;41.90
17399;DHT22;8817;48.170;8.592;2023-04-15T05:09:06;9.20;42.00
17399;DHT22;8817;48.170;8.592;2023-04-15T05:11:33;9.30;42.00
17399;DHT22;8817;48.170;8.592;2023-04-15T05:14:00;9.30;42.00
17399;DHT22;8817;48.170;8.592;2023-04-15T05:16:27;9.30;41.90
17399;DHT22;8817;48.170;8.592;2023-04-15T05:18:53;9.40;42.00
17399;DHT22;8817;48.170;8.592;2023-04-15T05:21:21;9.40;41.90
17399;DHT22;8817;48.170;8.592;2023-04-15T05:23:48;9.40;41.90
17399;DHT22;8817;48.170;8.592;2023-04-15T05:26:16;9.40;41.90
17399;DHT22;8817;48.170;8.592;2023-04-15T05:28:43;9.40;41.90
17399;DHT22;8817;48.170;8.592;2023-04-15T05:31:10;9.40;42.00
17399;DHT22;8817;48.170;8.592;2023-04-15T05:33:37;9.40;42.00
17399;DHT22;8817;48.170;8.592;2023-04-15T05:36:05;9.30;41.90
17399;DHT22;8817;48.170;8.592;2023-04-15T05:38:32;9.40;42.60
17399;DHT22;8817;48.170;8.592;2023-04-15T05:40:59;9.40;42.10
17399;DHT22;8817;48.170;8.592;2023-04-15T05:43:27;9.40;42.10
17399;DHT22;8817;48.170;8.592;2023-04-15T05:45:55;9.40;42.20
17399;DHT22;8817;48.170;8.592;2023-04-15T05:48:22;9.50;42.20
17399;DHT22;8817;48.170;8.592;2023-04-15T05:50:48;9.50;42.20
17399;DHT22;8817;48.170;8.592;2023-04-15T05:53:15;9.50;42.10
17399;DHT22;8817;48.170;8.592;2023-04-15T05:55:42;9.60;42.20
17399;DHT22;8817;48.170;8.592;2023-04-15T05:58:09;9.60;42.20
17399;DHT22;8817;48.170;8.592;2023-04-15T06:00:38;9.60;42.30
17399;DHT22;8817;48.170;8.592;2023-04-15T06:03:05;9.60;42.30
17399;DHT22;8817;48.170;8.592;2023-04-15T06:05:32;9.60;42.30
17399;DHT22;8817;48.170;8.592;2023-04-15T06:07:59;9.70;42.40
17399;DHT22;8817;48.170;8.592;2023-04-15T06:10:26;9.70;42.40
17399;DHT22;8817;48.170;8.592;2023-04-15T06:12:52;9.70;42.40
17399;DHT22;8817;48.170;8.592;2023-04-15T06:15:19;9.80;42.50
17399;DHT22;8817;48.170;8.592;2023-04-15T06:17:48;9.80;42.50
17399;DHT22;8817;48.170;8.592;2023-04-15T06:20:15;9.90;42.50
17399;DHT22;8817;48.170;8.592;2023-04-15T06:22:42;9.90;42.50
17399;DHT22;8817;48.170;8.592;2023-04-15T06:25:09;9.90;42.60
17399;DHT22;8817;48.170;8.592;2023-04-15T06:27:36;10.00;42.70
17399;DHT22;8817;48.170;8.592;2023-04-15T06:30:03;10.10;42.80
17399;DHT22;8817;48.170;8.592;2023-04-15T06:32:31;10.20;42.80
17399;DHT22;8817;48.170;8.592;2023-04-15T06:35:00;10.20;42.80
17399;DHT22;8817;48.170;8.592;2023-04-15T06:37:27;10.30;42.80
17399;DHT22;8817;48.170;8.592;2023-04-15T06:39:53;10.30;42.90
17399;DHT22;8817;48.170;8.592;2023-04-15T06:42:20;10.50;43.00
17399;DHT22;8817;48.170;8.592;2023-04-15T06:44:48;10.50;43.10
17399;DHT22;8817;48.170;8.592;2023-04-15T06:47:15;10.60;43.20
17399;DHT22;8817;48.170;8.592;2023-04-15T06:49:42;10.70;43.20
17399;DHT22;8817;48.170;8.592;2023-04-15T06:52:10;10.80;43.30
17399;DHT22;8817;48.170;8.592;2023-04-15T06:54:38;10.90;43.40
17399;DHT22;8817;48.170;8.592;2023-04-15T06:57:05;11.00;43.50
17399;DHT22;8817;48.170;8.592;2023-04-15T06:59:32;11.10;43.50
17399;DHT22;8817;48.170;8.592;2023-04-15T07:01:58;11.20;43.60
17399;DHT22;8817;48.170;8.592;2023-04-15T07:04:26;11.30;43.60
17399;DHT22;8817;48.170;8.592;2023-04-15T07:06:53;11.40;43.70
17399;DHT22;8817;48.170;8.592;2023-04-15T07:09:21;11.60;43.70
17399;DHT22;8817;48.170;8.592;2023-04-15T07:11:49;11.70;43.80
17399;DHT22;8817;48.170;8.592;2023-04-15T07:14:16;11.80;43.90
17399;DHT22;8817;48.170;8.592;2023-04-15T07:16:43;11.90;44.00
17399;DHT22;8817;48.170;8.592;2023-04-15T07:19:10;12.10;44.00
17399;DHT22;8817;48.170;8.592;2023-04-15T07:21:37;12.30;43.50
17399;DHT22;8817;48.170;8.592;2023-04-15T07:24:04;12.30;44.10
17399;DHT22;8817;48.170;8.592;2023-04-15T07:26:32;12.40;44.10
17399;DHT22;8817;48.170;8.592;2023-04-15T07:28:59;12.50;44.10
17399;DHT22;8817;48.170;8.592;2023-04-15T07:31:26;12.70;44.20
17399;DHT22;8817;48.170;8.592;2023-04-15T07:33:53;12.80;44.20
17399;DHT22;8817;48.170;8.592;2023-04-15T07:36:20;12.90;44.20
17399;DHT22;8817;48.170;8.592;2023-04-15T07:38:47;13.10;44.20
17399;DHT22;8817;48.170;8.592;2023-04-15T07:41:13;13.20;44.10
17399;DHT22;8817;48.170;8.592;2023-04-15T07:43:42;13.30;44.10
17399;DHT22;8817;48.170;8.592;2023-04-15T07:46:09;13.30;44.10
17399;DHT22;8817;48.170;8.592;2023-04-15T07:48:36;13.50;44.10
17399;DHT22;8817;48.170;8.592;2023-04-15T07:51:03;13.50;44.10
17399;DHT22;8817;48.170;8.592;2023-04-15T07:53:30;13.60;44.10
17399;DHT22;8817;48.170;8.592;2023-04-15T07:55:58;13.70;44.10
17399;DHT22;8817;48.170;8.592;2023-04-15T07:58:25;13.80;44.20
17399;DHT22;8817;48.170;8.592;2023-04-15T08:00:53;13.90;44.20
17399;DHT22;8817;48.170;8.592;2023-04-15T08:03:20;14.00;44.30
17399;DHT22;8817;48.170;8.592;2023-04-15T08:05:48;14.10;44.20
17399;DHT22;8817;48.170;8.592;2023-04-15T08:08:14;14.20;44.80
17399;DHT22;8817;48.170;8.592;2023-04-15T08:10:41;14.30;44.20
17399;DHT22;8817;48.170;8.592;2023-04-15T08:13:08;14.40;44.10
17399;DHT22;8817;48.170;8.592;2023-04-15T08:15:35;14.50;43.90
17399;DHT22;8817;48.170;8.592;2023-04-15T08:18:03;14.60;44.10
17399;DHT22;8817;48.170;8.592;2023-04-15T08:20:31;14.70;44.20
17399;DHT22;8817;48.170;8.592;2023-04-15T08:22:57;14.80;44.20
17399;DHT22;8817;48.170;8.592;2023-04-15T08:25:24;14.90;44.20
17399;DHT22;8817;48.170;8.592;2023-04-15T08:27:54;15.00;44.20
17399;DHT22;8817;48.170;8.592;2023-04-15T08:30:21;15.10;44.10
17399;DHT22;8817;48.170;8.592;2023-04-15T08:32:49;15.20;44.10
17399;DHT22;8817;48.170;8.592;2023-04-15T08:35:17;15.30;44.00
17399;DHT22;8817;48.170;8.592;2023-04-15T08:37:44;15.40;44.00
17399;DHT22;8817;48.170;8.592;2023-04-15T08:40:11;15.40;43.90
17399;DHT22;8817;48.170;8.592;2023-04-15T08:42:41;15.50;43.80
17399;DHT22;8817;48.170;8.592;2023-04-15T08:45:09;15.50;43.70
17399;DHT22;8817;48.170;8.592;2023-04-15T08:47:37;15.60;43.70
17399;DHT22;8817;48.170;8.592;2023-04-15T08:50:08;15.70;43.80
17399;DHT22;8817;48.170;8.592;2023-04-15T08:52:38;15.70;43.70
17399;DHT22;8817;48.170;8.592;2023-04-15T08:55:07;15.80;43.80
17399;DHT22;8817;48.170;8.592;2023-04-15T08:57:35;15.90;43.80
17399;DHT22;8817;48.170;8.592;2023-04-15T09:00:03;16.00;43.90
17399;DHT22;8817;48.170;8.592;2023-04-15T09:02:30;16.10;43.90
17399;DHT22;8817;48.170;8.592;2023-04-15T09:04:57;16.20;43.90
17399;DHT22;8817;48.170;8.592;2023-04-15T09:07:24;16.30;43.90
17399;DHT22;8817;48.170;8.592;2023-04-15T09:09:52;16.40;43.80
17399;DHT22;8817;48.170;8.592;2023-04-15T09:12:19;16.40;43.60
17399;DHT22;8817;48.170;8.592;2023-04-15T09:14:47;16.50;43.70
17399;DHT22;8817;48.170;8.592;2023-04-15T09:17:18;16.60;43.60
17399;DHT22;8817;48.170;8.592;2023-04-15T09:19:45;16.70;43.50
17399;DHT22;8817;48.170;8.592;2023-04-15T09:22:12;16.80;43.50
17399;DHT22;8817;48.170;8.592;2023-04-15T09:24:39;16.90;43.30
17399;DHT22;8817;48.170;8.592;2023-04-15T09:27:09;16.90;43.20
17399;DHT22;8817;48.170;8.592;2023-04-15T09:29:36;17.00;43.20
17399;DHT22;8817;48.170;8.592;2023-04-15T09:32:11;17.00;43.10
17399;DHT22;8817;48.170;8.592;2023-04-15T09:34:38;17.10;43.10
17399;DHT22;8817;48.170;8.592;2023-04-15T09:37:05;17.20;43.10
17399;DHT22;8817;48.170;8.592;2023-04-15T09:39:44;17.20;43.10
17399;DHT22;8817;48.170;8.592;2023-04-15T09:42:14;17.30;43.00
17399;DHT22;8817;48.170;8.592;2023-04-15T09:44:42;17.40;43.00
17399;DHT22;8817;48.170;8.592;2023-04-15T09:47:09;17.40;42.90
17399;DHT22;8817;48.170;8.592;2023-04-15T09:49:54;17.50;42.90
17399;DHT22;8817;48.170;8.592;2023-04-15T09:52:21;17.40;42.60
17399;DHT22;8817;48.170;8.592;2023-04-15T09:54:52;17.50;42.70
17399;DHT22;8817;48.170;8.592;2023-04-15T09:57:21;17.50;42.60
17399;DHT22;8817;48.170;8.592;2023-04-15T09:59:48;17.50;42.60
17399;DHT22;8817;48.170;8.592;2023-04-15T10:02:17;17.60;42.70
17399;DHT22;8817;48.170;8.592;2023-04-15T10:04:44;17.60;42.70
17399;DHT22;8817;48.170;8.592;2023-04-15T10:07:14;17.70;42.80
17399;DHT22;8817;48.170;8.592;2023-04-15T10:09:44;17.80;42.70
17399;DHT22;8817;48.170;8.592;2023-04-15T10:12:11;17.90;42.60
17399;DHT22;8817;48.170;8.592;2023-04-15T10:14:41;17.90;42.60
17399;DHT22;8817;48.170;8.592;2023-04-15T10:17:10;17.90;42.60
17399;DHT22;8817;48.170;8.592;2023-04-15T10:19:37;18.00;42.50
17399;DHT22;8817;48.170;8.592;2023-04-15T10:22:05;18.10;42.30
17399;DHT22;8817;48.170;8.592;2023-04-15T10:24:33;18.10;42.00
17399;DHT22;8817;48.170;8.592;2023-04-15T10:27:02;18.10;42.00
17399;DHT22;8817;48.170;8.592;2023-04-15T10:29:29;18.10;42.00
17399;DHT22;8817;48.170;8.592;2023-04-15T10:31:59;18.10;42.00
17399;DHT22;8817;48.170;8.592;2023-04-15T10:34:27;18.10;42.00
17399;DHT22;8817;48.170;8.592;2023-04-15T10:36:55;18.10;42.60
17399;DHT22;8817;48.170;8.592;2023-04-15T10:39:39;18.20;42.00
17399;DHT22;8817;48.170;8.592;2023-04-15T10:42:08;18.10;41.90
17399;DHT22;8817;48.170;8.592;2023-04-15T10:44:36;18.20;41.90
17399;DHT22;8817;48.170;8.592;2023-04-15T10:47:11;18.20;42.00
17399;DHT22;8817;48.170;8.592;2023-04-15T10:49:48;18.20;42.00
17399;DHT22;8817;48.170;8.592;2023-04-15T10:52:20;18.30;42.10
17399;DHT22;8817;48.170;8.592;2023-04-15T10:54:47;18.40;42.20
17399;DHT22;8817;48.170;8.592;2023-04-15T10:57:20;18.50;42.30
17399;DHT22;8817;48.170;8.592;2023-04-15T11:00:03;18.60;42.30
17399;DHT22;8817;48.170;8.592;2023-04-15T11:02:42;18.60;42.30
17399;DHT22;8817;48.170;8.592;2023-04-15T11:05:09;18.80;42.30
17399;DHT22;8817;48.170;8.592;2023-04-15T11:07:38;18.90;42.30
17399;DHT22;8817;48.170;8.592;2023-04-15T11:13:27;19.00;42.30
17399;DHT22;8817;48.170;8.592;2023-04-15T11:15:59;19.20;42.10
17399;DHT22;8817;48.170;8.592;2023-04-15T11:18:29;19.20;41.90
17399;DHT22;8817;48.170;8.592;2023-04-15T11:20:59;19.30;41.70
17399;DHT22;8817;48.170;8.592;2023-04-15T11:23:28;19.30;41.60
17399;DHT22;8817;48.170;8.592;2023-04-15T11:25:56;19.20;41.40
17399;DHT22;8817;48.170;8.592;2023-04-15T11:28:25;19.20;41.30
17399;DHT22;8817;48.170;8.592;2023-04-15T11:30:53;19.20;41.30
17399;DHT22;8817;48.170;8.592;2023-04-15T11:33:20;19.20;41.40
17399;DHT22;8817;48.170;8.592;2023-04-15T11:35:49;19.20;41.30
17399;DHT22;8817;48.170;8.592;2023-04-15T11:38:17;19.10;41.10
17399;DHT22;8817;48.170;8.592;2023-04-15T11:40:44;19.10;41.60
17399;DHT22;8817;48.170;8.592;2023-04-15T11:43:12;19.10;41.00
17399;DHT22;8817;48.170;8.592;2023-04-15T11:45:48;19.10;41.00
17399;DHT22;8817;48.170;8.592;2023-04-15T11:48:16;19.10;41.00
17399;DHT22;8817;48.170;8.592;2023-04-15T11:50:43;19.10;41.00
17399;DHT22;8817;48.170;8.592;2023-04-15T11:53:12;19.10;41.00
17399;DHT22;8817;48.170;8.592;2023-04-15T11:55:43;19.20;41.10
17399;DHT22;8817;48.170;8.592;2023-04-15T11:58:13;19.20;41.00
17399;DHT22;8817;48.170;8.592;2023-04-15T12:00:44;19.20;40.90
17399;DHT22;8817;48.170;8.592;2023-04-15T12:03:21;19.20;40.90
17399;DHT22;8817;48.170;8.592;2023-04-15T12:06:05;19.20;40.70
17399;DHT22;8817;48.170;8.592;2023-04-15T12:08:50;19.20;40.70
17399;DHT22;8817;48.170;8.592;2023-04-15T12:11:18;19.20;40.60
17399;DHT22;8817;48.170;8.592;2023-04-15T12:13:47;19.20;40.40
17399;DHT22;8817;48.170;8.592;2023-04-15T12:16:16;19.10;40.20
17399;DHT22;8817;48.170;8.592;2023-04-15T12:18:44;19.00;40.00
17399;DHT22;8817;48.170;8.592;2023-04-15T12:21:12;18.90;39.90
17399;DHT22;8817;48.170;8.592;2023-04-15T12:23:47;18.90;39.90
17399;DHT22;8817;48.170;8.592;2023-04-15T12:26:15;18.80;39.90
17399;DHT22;8817;48.170;8.592;2023-04-15T12:28:42;18.70;40.00
17399;DHT22;8817;48.170;8.592;2023-04-15T12:31:10;18.70;40.00
17399;DHT22;8817;48.170;8.592;2023-04-15T12:33:37;18.60;40.00
17399;DHT22;8817;48.170;8.592;2023-04-15T12:36:05;18.60;40.10
17399;DHT22;8817;48.170;8.592;2023-04-15T12:38:32;18.60;40.10
17399;DHT22;8817;48.170;8.592;2023-04-15T12:40:59;18.50;40.00
17399;DHT22;8817;48.170;8.592;2023-04-15T12:43:27;18.50;40.10
17399;DHT22;8817;48.170;8.592;2023-04-15T12:45:54;18.50;40.10
17399;DHT22;8817;48.170;8.592;2023-04-15T12:48:21;18.40;40.10
17399;DHT22;8817;48.170;8.592;2023-04-15T12:50:48;18.40;40.10
17399;DHT22;8817;48.170;8.592;2023-04-15T12:53:15;18.40;40.10
17399;DHT22;8817;48.170;8.592;2023-04-15T12:55:42;18.40;40.00
17399;DHT22;8817;48.170;8.592;2023-04-15T12:58:09;18.40;40.00
17399;DHT22;8817;48.170;8.592;2023-04-15T13:00:38;18.40;40.00
17399;DHT22;8817;48.170;8.592;2023-04-15T13:03:05;18.30;40.00
17399;DHT22;8817;48.170;8.592;2023-04-15T13:05:31;18.30;40.00
17399;DHT22;8817;48.170;8.592;2023-04-15T13:07:58;18.30;40.00
17399;DHT22;8817;48.170;8.592;2023-04-15T13:10:26;18.30;40.10
17399;DHT22;8817;48.170;8.592;2023-04-15T13:12:53;18.30;40.10
17399;DHT22;8817;48.170;8.592;2023-04-15T13:15:21;18.30;40.10
17399;DHT22;8817;48.170;8.592;2023-04-15T13:17:49;18.30;40.00
17399;DHT22;8817;48.170;8.592;2023-04-15T13:20:16;18.30;39.80
17399;DHT22;8817;48.170;8.592;2023-04-15T13:22:43;18.30;39.80
17399;DHT22;8817;48.170;8.592;2023-04-15T13:25:10;18.30;40.40
17399;DHT22;8817;48.170;8.592;2023-04-15T13:27:37;18.20;39.80
17399;DHT22;8817;48.170;8.592;2023-04-15T13:30:05;18.20;39.80
17399;DHT22;8817;48.170;8.592;2023-04-15T13:32:32;18.20;39.80
17399;DHT22;8817;48.170;8.592;2023-04-15T13:35:00;18.20;40.20
17399;DHT22;8817;48.170;8.592;2023-04-15T13:37:27;18.20;39.90
17399;DHT22;8817;48.170;8.592;2023-04-15T13:39:55;18.30;40.00
17399;DHT22;8817;48.170;8.592;2023-04-15T13:42:22;18.30;39.90
17399;DHT22;8817;48.170;8.592;2023-04-15T13:44:49;18.40;39.90
17399;DHT22;8817;48.170;8.592;2023-04-15T13:47:16;18.40;39.80
17399;DHT22;8817;48.170;8.592;2023-04-15T13:49:44;18.40;39.80
17399;DHT22;8817;48.170;8.592;2023-04-15T13:52:12;18.50;39.90
17399;DHT22;8817;48.170;8.592;2023-04-15T13:54:39;18.50;39.80
17399;DHT22;8817;48.170;8.592;2023-04-15T13:57:06;18.40;39.60
17399;DHT22;8817;48.170;8.592;2023-04-15T13:59:33;18.40;39.60
17399;DHT22;8817;48.170;8.592;2023-04-15T14:02:00;18.40;39.60
17399;DHT22;8817;48.170;8.592;2023-04-15T14:04:27;18.30;39.50
17399;DHT22;8817;48.170;8.592;2023-04-15T14:06:55;18.30;39.50
17399;DHT22;8817;48.170;8.592;2023-04-15T14:09:23;18.30;39.40
17399;DHT22;8817;48.170;8.592;2023-04-15T14:11:50;18.20;39.30
17399;DHT22;8817;48.170;8.592;2023-04-15T14:14:17;18.10;39.30
17399;DHT22;8817;48.170;8.592;2023-04-15T14:16:44;18.00;39.20
17399;DHT22;8817;48.170;8.592;2023-04-15T14:19:12;18.00;39.30
17399;DHT22;8817;48.170;8.592;2023-04-15T14:21:39;17.90;39.30
17399;DHT22;8817;48.170;8.592;2023-04-15T14:24:06;17.80;39.20
17399;DHT22;8817;48.170;8.592;2023-04-15T14:26:34;17.80;39.30
17399;DHT22;8817;48.170;8.592;2023-04-15T14:29:01;17.70;39.30
17399;DHT22;8817;48.170;8.592;2023-04-15T14:31:28;17.70;39.40
17399;DHT22;8817;48.170;8.592;2023-04-15T14:33:55;17.70;39.90
17399;DHT22;8817;48.170;8.592;2023-04-15T14:36:22;17.70;39.50
17399;DHT22;8817;48.170;8.592;2023-04-15T14:38:48;17.60;39.40
17399;DHT22;8817;48.170;8.592;2023-04-15T14:41:15;17.60;39.50
17399;DHT22;8817;48.170;8.592;2023-04-15T14:43:43;17.60;39.50
17399;DHT22;8817;48.170;8.592;2023-04-15T14:46:10;17.70;39.60
17399;DHT22;8817;48.170;8.592;2023-04-15T14:48:38;17.70;39.50
17399;DHT22;8817;48.170;8.592;2023-04-15T14:51:05;17.70;39.50
17399;DHT22;8817;48.170;8.592;2023-04-15T14:53:32;17.70;39.40
17399;DHT22;8817;48.170;8.592;2023-04-15T14:55:59;17.70;39.30
17399;DHT22;8817;48.170;8.592;2023-04-15T14:58:26;17.70;39.30
17399;DHT22;8817;48.170;8.592;2023-04-15T15:00:54;17.80;39.30
17399;DHT22;8817;48.170;8.592;2023-04-15T15:03:22;17.80;39.30
17399;DHT22;8817;48.170;8.592;2023-04-15T15:05:49;17.90;39.30
17399;DHT22;8817;48.170;8.592;2023-04-15T15:08:16;17.90;39.20
17399;DHT22;8817;48.170;8.592;2023-04-15T15:10:43;17.90;39.10
17399;DHT22;8817;48.170;8.592;2023-04-15T15:13:10;18.00;39.00
17399;DHT22;8817;48.170;8.592;2023-04-15T15:15:37;18.00;38.90
17399;DHT22;8817;48.170;8.592;2023-04-15T15:18:05;18.00;38.70
17399;DHT22;8817;48.170;8.592;2023-04-15T15:20:32;18.00;38.60
17399;DHT22;8817;48.170;8.592;2023-04-15T15:23:00;18.00;38.60
17399;DHT22;8817;48.170;8.592;2023-04-15T15:25:27;18.00;38.50
17399;DHT22;8817;48.170;8.592;2023-04-15T15:27:54;18.00;38.50
17399;DHT22;8817;48.170;8.592;2023-04-15T15:30:23;18.00;39.00
17399;DHT22;8817;48.170;8.592;2023-04-15T15:32:50;17.90;38.30
17399;DHT22;8817;48.170;8.592;2023-04-15T15:35:18;17.90;38.30
17399;DHT22;8817;48.170;8.592;2023-04-15T15:37:47;17.80;38.20
17399;DHT22;8817;48.170;8.592;2023-04-15T15:40:14;17.80;38.30
17399;DHT22;8817;48.170;8.592;2023-04-15T15:42:41;17.80;38.20
17399;DHT22;8817;48.170;8.592;2023-04-15T15:45:09;17.80;38.20
17399;DHT22;8817;48.170;8.592;2023-04-15T15:47:36;17.70;38.20
17399;DHT22;8817;48.170;8.592;2023-04-15T15:50:03;17.70;38.80
17399;DHT22;8817;48.170;8.592;2023-04-15T15:52:32;17.70;38.20
17399;DHT22;8817;48.170;8.592;2023-04-15T15:54:59;17.60;38.20
17399;DHT22;8817;48.170;8.592;2023-04-15T15:57:26;17.60;38.20